world map with AEP marked

AEP - Airport

This information may not be accurate or current and is not valid for navigation or flight planning. No warranty of fitness for any purpose is made or implied.

flag of Distrito Federalflag of Argentina

Donate via PayPal

Additional information is available on the NEW Great Circle Mapper

Location
City:  Buenos Aires, Distrito Federal, Argentina
Name:Aeroparque Jorge Newbery
ICAO / IATA:SABE / AEP

Details
Type:Airport (Aerodrome, Airfield)
Use:Public/Civil, Military
Latitude:34°33'33"S (-34.559174)
Longitude:58°24'56"W (-58.415605)
Datum:WGS 1984
Elevation:18 ft (5 m)
Runways:1
Longest:6890 × 131 ft (2100 × 40 m)

Time
Timezone:UTC+31:08
Local Time:

Weather
METAR:SABE  242300Z 11012KT CAVOK 23/19 Q1014
TAF:SABE  (expired)

Related Locations
Nearby:
Farthest:YNZ: 12325 mi / 19835 km
Yancheng, Jiangsu, CN

Find:

   beyond  
but within

Other Information
Maps:
Links:
Sources:

  


 


Great Circle Mapper   Great Circle Mapper
Great Circle Mapper FAQ   Great Circle Mapper FAQ
  Karl's Home Page
KLSē   KLSē Home
   GC on Facebook
Airlines of the World   Airlines of the World
Donate via PayPal


Copyright © 2004-2014, Karl L. Swartz. All rights reserved.
All trademarks mentioned herein belong to their respective owners.

Please see credits for attribution and copyright information.

Karl Swartz <karl@kls2.com>
  Powered by FreeBSD
Valid HTML 4.01!
Labeled with ICRA
hCard Microformat
Geo Microformat